Time;durP1;ratioP1;P1;durP2;ratioP2;P2;SDS_P1;SDS_P2;PMS_P1;PMS_P2;Temp;Humidity;BMP_temperature;BMP_pressure;BME280_temperature;BME280_humidity;BME280_pressure;Samples;Min_cycle;Max_cycle;Signal;HPM_P1;HPM_P2
2023/08/11 00:00:21;;;;;;;7.90;4.50;;;;;;;10.11;95.44;99442.30;137350;1275;22395;-84
2023/08/11 00:03:43;;;;;;;11.40;5.30;;;;;;;10.03;94.45;99443.86;137347;1275;22728;-83
2023/08/11 00:06:46;;;;;;;8.20;4.90;;;;;;;9.96;94.09;99444.73;137224;1275;22268;-83
2023/08/11 00:09:48;;;;;;;9.90;4.90;;;;;;;9.89;94.01;99444.02;137386;1275;22479;-82
2023/08/11 00:12:51;;;;;;;7.90;4.80;;;;;;;9.86;94.53;99438.39;137321;1275;22687;-83
2023/08/11 00:15:53;;;;;;;25.30;5.60;;;;;;;9.84;94.62;99435.75;137424;1275;22249;-83
2023/08/11 00:18:56;;;;;;;11.40;4.70;;;;;;;9.81;94.47;99433.77;137194;1275;22259;-82
2023/08/11 00:21:58;;;;;;;5.80;4.70;;;;;;;9.77;94.50;99430.17;137334;1275;22654;-82
2023/08/11 00:25:01;;;;;;;11.90;4.80;;;;;;;9.74;94.66;99433.41;137377;1275;22131;-82
2023/08/11 00:28:03;;;;;;;24.40;5.70;;;;;;;9.70;94.61;99437.65;137099;1275;24138;-84
2023/08/11 00:31:06;;;;;;;10.10;5.20;;;;;;;10.67;100.00;99434.29;137271;1275;22183;-82
2023/08/11 00:34:10;;;;;;;7.60;4.60;;;;;;;11.26;100.00;99431.00;137231;1275;22239;-82
2023/08/11 00:37:12;;;;;;;10.30;4.20;;;;;;;10.93;100.00;99433.14;137355;1272;22601;-83
2023/08/11 00:40:15;;;;;;;7.60;4.40;;;;;;;10.63;100.00;99432.20;137326;1275;22695;-82
2023/08/11 00:43:17;;;;;;;223.50;20.30;;;;;;;10.40;100.00;99432.04;137345;1275;22295;-82
2023/08/11 00:46:20;;;;;;;14.10;5.00;;;;;;;10.20;100.00;99427.90;137264;1275;25367;-80
2023/08/11 00:49:23;;;;;;;5.30;4.20;;;;;;;10.03;100.00;99425.75;137075;1275;22543;-82
2023/08/11 00:52:25;;;;;;;7.70;4.30;;;;;;;9.90;100.00;99422.33;137295;1275;22150;-82
2023/08/11 00:55:28;;;;;;;8.20;4.40;;;;;;;9.82;100.00;99424.05;137283;1275;22567;-82
2023/08/11 00:58:30;;;;;;;6.50;4.60;;;;;;;9.76;100.00;99421.83;137336;1275;22159;-83
2023/08/11 01:01:35;;;;;;;8.90;4.80;;;;;;;9.69;100.00;99425.81;137293;1273;22373;-82
2023/08/11 01:04:37;;;;;;;6.30;5.00;;;;;;;9.60;100.00;99431.49;137281;1275;22660;-82
2023/08/11 01:07:40;;;;;;;11.80;5.40;;;;;;;9.54;100.00;99433.95;137378;1275;22252;-82
2023/08/11 01:10:42;;;;;;;7.10;4.60;;;;;;;9.51;100.00;99432.27;137212;1275;22557;-82
2023/08/11 01:13:45;;;;;;;81.70;9.90;;;;;;;9.47;100.00;99433.94;137303;1275;23018;-81
2023/08/11 01:16:48;;;;;;;9.90;4.50;;;;;;;9.44;100.00;99432.10;137279;1275;22298;-82
2023/08/11 01:19:51;;;;;;;4.90;4.30;;;;;;;9.36;100.00;99429.83;137341;1275;22250;-84
2023/08/11 01:22:53;;;;;;;9.90;4.30;;;;;;;9.29;100.00;99427.70;137282;1275;22251;-84
2023/08/11 01:25:57;;;;;;;11.80;4.80;;;;;;;9.24;100.00;99428.13;137249;1275;22273;-83
2023/08/11 01:28:59;;;;;;;8.00;4.40;;;;;;;9.19;100.00;99429.55;137303;1275;22251;-83
2023/08/11 01:32:02;;;;;;;12.50;4.50;;;;;;;9.15;100.00;99427.35;137284;1275;23195;-83
2023/08/11 01:35:05;;;;;;;6.70;4.70;;;;;;;9.13;100.00;99428.68;137319;1275;22485;-84
2023/08/11 01:38:08;;;;;;;11.00;5.60;;;;;;;9.12;100.00;99427.27;137330;1275;22135;-83
2023/08/11 01:41:13;;;;;;;6.20;4.80;;;;;;;9.13;100.00;99433.56;137299;1275;22537;-83
2023/08/11 01:44:15;;;;;;;87.10;9.00;;;;;;;9.17;100.00;99430.68;137274;1275;22227;-84
2023/08/11 01:47:18;;;;;;;11.70;5.60;;;;;;;9.12;100.00;99425.86;137310;1275;22181;-83
2023/08/11 01:50:21;;;;;;;9.40;4.60;;;;;;;9.07;100.00;99428.86;137337;1275;22560;-84
2023/08/11 01:53:23;;;;;;;10.60;5.00;;;;;;;9.03;100.00;99428.40;137275;1272;22228;-83
2023/08/11 01:56:26;;;;;;;7.60;5.40;;;;;;;9.01;100.00;99426.43;137366;1275;22371;-83
2023/08/11 01:59:28;;;;;;;7.60;4.70;;;;;;;8.99;100.00;99420.48;137300;1275;22202;-84
2023/08/11 02:02:31;;;;;;;6.90;5.00;;;;;;;8.95;100.00;99424.90;137313;1275;22310;-83
2023/08/11 02:05:34;;;;;;;28.60;6.60;;;;;;;8.92;100.00;99424.64;137251;1275;22572;-80
2023/08/11 02:08:37;;;;;;;10.90;5.70;;;;;;;8.90;100.00;99427.02;137307;1275;22166;-84
2023/08/11 02:11:41;;;;;;;14.10;5.60;;;;;;;8.86;100.00;99424.66;137268;1275;22628;-83
2023/08/11 02:14:44;;;;;;;8.50;5.80;;;;;;;8.82;100.00;99427.67;137116;1275;22510;-83
2023/08/11 02:51:46;;;;;;;13.60;6.30;;;;;;;9.16;100.00;99439.86;132786;1305;544824;-79
2023/08/11 02:54:49;;;;;;;8.90;5.70;;;;;;;8.96;100.00;99443.31;135678;1286;22500;-83
2023/08/11 02:57:51;;;;;;;8.20;5.10;;;;;;;8.80;100.00;99442.35;136230;1287;22543;-82
2023/08/11 03:00:54;;;;;;;5.60;5.10;;;;;;;8.65;100.00;99443.48;136846;1275;22268;-82
2023/08/11 03:03:59;;;;;;;8.20;5.10;;;;;;;8.55;100.00;99444.21;135118;1273;2262202;-83
2023/08/11 03:07:05;;;;;;;14.10;4.80;;;;;;;9.49;100.00;99441.52;137712;1273;22548;-82
2023/08/11 03:10:09;;;;;;;9.00;4.60;;;;;;;11.60;100.00;99440.52;136887;1273;22537;-82
2023/08/11 03:13:12;;;;;;;8.60;5.00;;;;;;;11.10;100.00;99443.40;137101;1273;22602;-81
2023/08/11 03:16:15;;;;;;;9.20;4.40;;;;;;;10.50;100.00;99447.75;137562;1273;22235;-81
2023/08/11 03:19:18;;;;;;;6.10;4.40;;;;;;;10.08;100.00;99449.17;136925;1273;22225;-81
2023/08/11 03:22:20;;;;;;;6.20;4.60;;;;;;;9.76;100.00;99444.41;137082;1273;22256;-80
2023/08/11 03:25:23;;;;;;;6.90;4.10;;;;;;;9.48;100.00;99443.00;137330;1273;22547;-81
2023/08/11 03:28:28;;;;;;;20.40;4.70;;;;;;;9.28;100.00;99441.58;136732;1273;22541;-81
2023/08/11 03:31:33;;;;;;;16.90;4.50;;;;;;;10.91;100.00;99434.75;136874;1273;22740;-81
2023/08/11 03:34:35;;;;;;;8.10;4.20;;;;;;;13.55;100.00;99437.05;137414;1273;22257;-81
2023/08/11 03:37:38;;;;;;;9.80;4.10;;;;;;;15.44;100.00;99434.58;136876;1273;22654;-82
2023/08/11 03:40:40;;;;;;;5.40;4.00;;;;;;;16.21;100.00;99440.26;136824;1266;22513;-82
2023/08/11 03:43:43;;;;;;;6.30;3.90;;;;;;;15.65;100.00;99442.72;137514;1269;22280;-82
2023/08/11 03:46:46;;;;;;;10.60;3.90;;;;;;;15.87;100.00;99442.38;137264;1273;22226;-83
2023/08/11 03:49:48;;;;;;;23.10;5.00;;;;;;;14.60;100.00;99448.60;136959;1273;22317;-84
2023/08/11 03:52:51;;;;;;;384.30;31.90;;;;;;;13.32;100.00;99456.79;137310;1273;22837;-84
2023/08/11 03:55:54;;;;;;;48.00;6.80;;;;;;;12.43;100.00;99463.69;137385;1269;22313;-84
2023/08/11 03:58:56;;;;;;;12.60;4.70;;;;;;;11.76;100.00;99461.89;137041;1273;22236;-83
2023/08/11 04:01:59;;;;;;;5.70;4.10;;;;;;;11.23;100.00;99467.52;136984;1273;22535;-82
2023/08/11 04:05:01;;;;;;;1209.50;108.30;;;;;;;10.79;100.00;99470.98;137528;1273;22146;-85
2023/08/11 04:08:04;;;;;;;64.80;7.90;;;;;;;10.48;100.00;99473.45;136856;1273;22198;-84
2023/08/11 04:11:08;;;;;;;8.90;4.20;;;;;;;10.26;100.00;99469.80;136887;1273;24272;-83
2023/08/11 04:14:10;;;;;;;11.50;4.60;;;;;;;10.07;100.00;99470.37;137539;1273;22407;-82
2023/08/11 04:17:13;;;;;;;7.20;4.20;;;;;;;9.94;100.00;99471.80;137105;1273;22391;-82
2023/08/11 04:20:18;;;;;;;25.10;4.60;;;;;;;9.87;100.00;99474.23;137212;1273;22255;-81
2023/08/11 04:23:21;;;;;;;7.50;4.30;;;;;;;9.82;100.00;99475.48;137507;1273;22670;-81
2023/08/11 04:26:23;;;;;;;5.50;4.00;;;;;;;9.76;100.00;99475.01;137466;1273;22239;-81
2023/08/11 04:29:26;;;;;;;6.40;4.40;;;;;;;9.74;100.00;99472.52;137075;1266;22263;-80
2023/08/11 04:32:28;;;;;;;6.90;4.60;;;;;;;9.75;100.00;99471.33;137191;1273;23130;-81
2023/08/11 04:35:31;;;;;;;104.30;10.60;;;;;;;9.78;100.00;99469.66;137370;1273;22658;-82
2023/08/11 04:38:34;;;;;;;15.70;5.30;;;;;;;9.86;100.00;99464.64;137060;1273;22251;-81
2023/08/11 04:41:37;;;;;;;7.70;4.80;;;;;;;10.04;100.00;99465.77;137059;1273;23530;-81
2023/08/11 04:44:40;;;;;;;19.40;5.40;;;;;;;10.25;100.00;99466.28;137459;1273;22608;-81
2023/08/11 04:47:42;;;;;;;8.70;4.60;;;;;;;10.49;100.00;99470.55;137308;1273;22269;-81
2023/08/11 04:50:45;;;;;;;18.90;5.70;;;;;;;10.70;100.00;99474.98;137083;1273;22244;-83
2023/08/11 04:53:49;;;;;;;11.00;4.70;;;;;;;10.82;100.00;99473.85;137457;1273;22245;-82
2023/08/11 04:56:52;;;;;;;5.70;4.30;;;;;;;10.95;100.00;99472.54;137156;1273;22420;-85
2023/08/11 04:59:54;;;;;;;9.60;4.30;;;;;;;11.12;100.00;99478.11;137197;1273;22252;-84
2023/08/11 05:02:57;;;;;;;31.80;5.20;;;;;;;11.30;100.00;99480.05;137484;1273;25908;-82
2023/08/11 05:06:00;;;;;;;42.70;23.90;;;;;;;11.41;100.00;99480.10;137193;1273;22309;-82
2023/08/11 05:09:03;;;;;;;70.40;10.00;;;;;;;11.54;100.00;99479.30;137071;1273;24892;-82
2023/08/11 05:12:06;;;;;;;8.70;5.60;;;;;;;11.73;100.00;99482.42;137552;1273;22308;-82
2023/08/11 05:15:12;;;;;;;71.80;9.00;;;;;;;11.87;100.00;99481.98;137350;1273;22386;-83
2023/08/11 05:18:15;;;;;;;8.90;6.00;;;;;;;12.06;100.00;99481.60;137154;1258;22283;-83
2023/08/11 05:21:21;;;;;;;8.10;5.60;;;;;;;12.33;100.00;99482.92;137329;1273;22601;-81
2023/08/11 05:24:24;;;;;;;8.70;6.50;;;;;;;12.51;100.00;99484.75;137236;1269;22256;-83
2023/08/11 05:27:26;;;;;;;922.20;70.90;;;;;;;12.71;100.00;99485.04;137472;1273;22672;-80
2023/08/11 05:30:29;;;;;;;165.70;17.00;;;;;;;12.94;100.00;99488.13;137204;1273;22539;-82
2023/08/11 05:33:32;;;;;;;86.50;13.00;;;;;;;13.26;100.00;99488.56;137360;1273;22374;-82
2023/08/11 05:36:34;;;;;;;86.40;14.00;;;;;;;13.58;100.00;99487.52;136798;1269;22558;-82
2023/08/11 05:39:38;;;;;;;16.10;10.00;;;;;;;13.85;100.00;99481.66;137443;1273;22746;-83
2023/08/11 05:42:41;;;;;;;163.50;20.70;;;;;;;14.11;100.00;99482.06;137485;1273;22201;-82
2023/08/11 05:45:43;;;;;;;12.70;10.20;;;;;;;14.36;100.00;99481.05;137073;1273;22268;-81
2023/08/11 05:48:48;;;;;;;20.50;9.90;;;;;;;14.63;100.00;99475.61;137074;1273;23213;-81
2023/08/11 05:51:50;;;;;;;18.00;9.40;;;;;;;14.86;100.00;99473.31;137260;1273;22594;-80
2023/08/11 05:54:53;;;;;;;675.80;62.10;;;;;;;15.17;100.00;99475.02;136968;1260;22234;-81
2023/08/11 05:57:56;;;;;;;23.70;9.40;;;;;;;15.54;100.00;99475.48;137149;1273;22241;-80
2023/08/11 06:00:58;;;;;;;33.10;9.10;;;;;;;15.90;100.00;99474.52;137007;1273;25230;-80
2023/08/11 06:04:04;;;;;;;59.10;9.70;;;;;;;16.24;100.00;99473.27;137325;1273;22410;-80
2023/08/11 06:07:06;;;;;;;18.20;6.50;;;;;;;16.64;100.00;99475.01;136724;1273;22278;-81
2023/08/11 06:10:09;;;;;;;46.20;8.90;;;;;;;17.02;100.00;99469.80;137136;1273;22575;-79
2023/08/11 06:13:12;;;;;;;97.50;10.20;;;;;;;17.39;100.00;99471.40;137258;1273;22258;-81
2023/08/11 06:16:14;;;;;;;137.70;13.30;;;;;;;17.69;100.00;99467.71;137424;1273;23002;-82
2023/08/11 06:19:17;;;;;;;9.70;4.90;;;;;;;17.97;100.00;99473.52;137178;1273;22248;-82
2023/08/11 06:22:20;;;;;;;7.30;5.20;;;;;;;18.21;100.00;99478.08;137406;1273;22663;-82
2023/08/11 06:25:23;;;;;;;11.30;5.10;;;;;;;18.44;100.00;99484.58;137194;1273;22809;-84
2023/08/11 06:28:26;;;;;;;10.90;5.50;;;;;;;18.68;100.00;99488.23;137059;1273;22571;-83
2023/08/11 06:31:28;;;;;;;9.10;5.00;;;;;;;18.87;100.00;99483.96;137450;1273;22249;-84
2023/08/11 06:34:31;;;;;;;8.70;4.30;;;;;;;19.06;100.00;99483.58;137159;1273;22376;-82
2023/08/11 06:37:33;;;;;;;6.40;4.30;;;;;;;19.23;100.00;99482.67;137058;1273;22177;-84
2023/08/11 06:40:38;;;;;;;7.10;4.40;;;;;;;19.41;100.00;99484.91;137549;1273;22326;-83
2023/08/11 06:43:41;;;;;;;9.20;4.50;;;;;;;19.65;72.24;99487.59;136840;1273;22306;-83
2023/08/11 06:46:44;;;;;;;;;;;;;;;19.82;65.53;99488.05;137084;1273;23241;-84
2023/08/11 06:49:55;;;;;;;15.90;5.50;;;;;;;20.05;65.25;99490.71;137450;1273;22274;-82
2023/08/11 06:53:18;;;;;;;12.20;4.60;;;;;;;20.44;64.40;99493.42;137466;1273;22227;-82
2023/08/11 06:56:21;;;;;;;16.40;5.20;;;;;;;20.63;63.09;99489.73;137511;1273;22340;-85
2023/08/11 06:59:23;;;;;;;13.20;5.40;;;;;;;20.80;63.02;99493.85;137447;1273;22260;-84
2023/08/11 07:02:26;;;;;;;24.20;5.50;;;;;;;21.07;62.83;99496.87;136904;1272;22222;-82
2023/08/11 07:05:29;;;;;;;8.20;4.80;;;;;;;21.30;60.98;99495.02;137507;1273;22220;-81
2023/08/11 07:08:32;;;;;;;5.30;4.00;;;;;;;21.40;58.51;99501.52;137477;1273;22227;-84
2023/08/11 07:11:35;;;;;;;5.40;4.00;;;;;;;21.29;57.62;99499.27;137491;1273;22713;-82
2023/08/11 07:14:38;;;;;;;6.10;3.50;;;;;;;21.34;58.11;99499.34;137554;1273;22219;-82
2023/08/11 07:17:40;;;;;;;6.40;3.40;;;;;;;21.49;56.83;99502.73;137356;1273;22412;-82
2023/08/11 07:20:54;;;;;;;8.30;3.90;;;;;;;21.55;55.93;99500.65;137357;1273;22546;-82
2023/08/11 07:24:00;;;;;;;5.40;3.60;;;;;;;21.56;54.42;99502.92;137370;1273;22842;-82
2023/08/11 07:27:07;;;;;;;8.20;3.40;;;;;;;21.60;55.09;99504.95;137381;1273;22388;-82
2023/08/11 07:30:12;;;;;;;5.50;3.00;;;;;;;21.81;55.97;99507.17;137336;1273;22257;-83
2023/08/11 07:33:15;;;;;;;8.10;3.30;;;;;;;22.03;54.61;99506.68;137456;1273;22219;-81
2023/08/11 07:36:18;;;;;;;6.60;3.30;;;;;;;22.13;54.51;99505.02;137471;1273;22429;-83
2023/08/11 07:39:22;;;;;;;4.60;3.30;;;;;;;22.32;53.50;99505.80;137269;1273;22217;-82
2023/08/11 07:42:30;;;;;;;;;;;;;;;22.41;53.81;99505.20;137154;1273;22528;-81
2023/08/11 07:45:34;;;;;;;7.70;3.80;;;;;;;22.68;53.97;99501.16;136845;1273;22575;-80
2023/08/11 07:48:38;;;;;;;8.00;3.50;;;;;;;22.95;52.87;99502.58;137221;1273;22217;-82
2023/08/11 07:51:44;;;;;;;11.00;5.60;;;;;;;23.07;51.37;99504.20;137350;1273;22385;-83
2023/08/11 07:54:46;;;;;;;4.50;3.00;;;;;;;23.16;50.65;99504.45;137474;1273;22479;-81
2023/08/11 07:57:49;;;;;;;4.00;3.00;;;;;;;23.17;49.55;99499.80;137543;1273;22382;-83
2023/08/11 08:00:53;;;;;;;7.10;2.50;;;;;;;23.32;48.78;99498.84;137564;1269;22212;-83
2023/08/11 08:03:56;;;;;;;3.20;2.60;;;;;;;23.41;47.49;99498.05;137464;1273;22287;-81
2023/08/11 08:06:59;;;;;;;4.70;2.50;;;;;;;23.48;47.36;99496.08;137475;1273;22222;-83
2023/08/11 08:10:08;;;;;;;5.50;2.40;;;;;;;23.49;45.34;99497.30;137482;1273;22142;-82
2023/08/11 08:13:13;;;;;;;3.50;2.30;;;;;;;23.43;45.06;99493.91;137510;1273;22454;-82
2023/08/11 08:16:19;;;;;;;77.60;7.20;;;;;;;23.57;44.00;99495.48;137538;1273;22243;-80
2023/08/11 08:19:22;;;;;;;6.10;2.50;;;;;;;23.72;44.39;99493.23;137291;1273;22199;-83
2023/08/11 08:22:24;;;;;;;3.00;1.90;;;;;;;23.93;44.50;99488.67;137391;1273;22245;-83
2023/08/11 08:25:27;;;;;;;2.60;2.40;;;;;;;24.04;42.38;99493.62;137079;1273;22284;-83
2023/08/11 08:28:30;;;;;;;4.20;2.50;;;;;;;23.94;41.64;99489.50;137377;1273;22107;-84
2023/08/11 08:31:33;;;;;;;3.30;2.00;;;;;;;23.99;42.06;99492.02;137538;1273;22302;-81
2023/08/11 08:34:35;;;;;;;6.90;2.50;;;;;;;24.19;41.99;99490.66;137375;1273;22509;-81
2023/08/11 08:37:38;;;;;;;10.10;2.20;;;;;;;24.38;39.69;99492.92;137547;1272;22719;-82
2023/08/11 08:40:45;;;;;;;3.20;1.90;;;;;;;23.95;39.25;99492.13;137552;1272;22284;-84
2023/08/11 08:43:47;;;;;;;2.80;1.80;;;;;;;23.88;39.36;99484.58;137523;1273;22149;-81
2023/08/11 08:46:50;;;;;;;2.20;2.00;;;;;;;24.06;40.71;99486.81;137461;1273;22320;-83
2023/08/11 08:49:52;;;;;;;3.10;1.60;;;;;;;24.20;38.16;99493.65;137516;1272;22194;-83
2023/08/11 08:52:55;;;;;;;9.20;2.20;;;;;;;24.04;37.21;99493.63;137295;1272;22564;-82
2023/08/11 08:55:58;;;;;;;23.40;3.40;;;;;;;24.01;38.36;99491.61;137559;1272;22422;-80
2023/08/11 08:59:00;;;;;;;3.50;1.80;;;;;;;24.05;37.80;99492.73;137564;1273;22186;-79
2023/08/11 09:02:03;;;;;;;9.50;2.70;;;;;;;24.02;37.79;99493.69;137436;1273;22563;-82
2023/08/11 09:05:06;;;;;;;3.80;2.10;;;;;;;24.40;39.20;99493.73;137423;1273;22235;-83
2023/08/11 09:08:09;;;;;;;2.60;2.10;;;;;;;24.73;37.88;99498.98;137543;1273;23005;-84
2023/08/11 09:11:12;;;;;;;3.10;1.80;;;;;;;24.70;37.89;99494.65;137274;1273;22546;-83
2023/08/11 09:14:16;;;;;;;2.90;1.90;;;;;;;24.57;37.84;99494.40;137321;1272;22282;-82
2023/08/11 09:17:18;;;;;;;13.10;2.70;;;;;;;24.77;39.04;99493.86;137505;1269;22216;-81
2023/08/11 09:20:23;;;;;;;133.30;11.90;;;;;;;25.15;38.11;99495.40;137526;1273;22549;-82
2023/08/11 09:23:25;;;;;;;7.20;2.30;;;;;;;25.54;38.33;99491.60;137380;1272;22563;-82
2023/08/11 09:26:28;;;;;;;21.90;4.30;;;;;;;25.97;38.20;99485.81;137523;1272;22217;-82
2023/08/11 09:29:31;;;;;;;39.70;6.60;;;;;;;26.32;38.26;99482.63;137477;1272;22681;-81
2023/08/11 09:32:33;;;;;;;9.70;2.50;;;;;;;26.20;36.22;99484.35;137572;1272;22355;-82
2023/08/11 09:35:39;;;;;;;4.00;2.30;;;;;;;25.71;36.69;99484.33;137551;1273;22896;-84
2023/08/11 09:38:42;;;;;;;11.80;3.20;;;;;;;25.88;35.92;99486.00;137301;1273;22342;-83
2023/08/11 09:41:45;;;;;;;4.00;2.10;;;;;;;25.87;35.01;99487.79;137500;1273;22285;-83
2023/08/11 09:44:47;;;;;;;2.60;2.00;;;;;;;25.81;35.73;99488.94;137480;1273;22325;-83
2023/08/11 09:47:50;;;;;;;68.90;6.70;;;;;;;26.14;36.19;99488.88;137449;1273;22218;-80
2023/08/11 09:50:53;;;;;;;11.40;2.90;;;;;;;26.57;35.26;99487.05;137483;1273;22926;-81
2023/08/11 09:53:55;;;;;;;9.40;3.10;;;;;;;26.86;34.36;99485.27;137497;1273;22233;-81
2023/08/11 09:56:58;;;;;;;15.10;2.60;;;;;;;27.13;34.34;99482.68;137490;1273;22580;-79
2023/08/11 10:00:00;;;;;;;5.40;2.40;;;;;;;27.20;34.17;99486.45;137503;1273;22268;-81
2023/08/11 10:03:03;;;;;;;34.30;4.20;;;;;;;27.07;34.09;99483.84;137470;1273;22303;-83
2023/08/11 10:06:06;;;;;;;56.50;6.00;;;;;;;27.08;34.25;99485.06;137376;1273;22266;-84
2023/08/11 10:09:09;;;;;;;22.10;3.50;;;;;;;26.83;34.18;99485.58;137534;1273;22488;-83
2023/08/11 10:12:11;;;;;;;26.70;4.30;;;;;;;26.34;35.27;99489.48;137533;1273;22282;-83
2023/08/11 10:15:14;;;;;;;28.10;3.10;;;;;;;25.87;36.96;99490.14;137549;1273;22155;-83
2023/08/11 10:18:16;;;;;;;14.20;3.10;;;;;;;25.57;37.31;99488.98;137365;1273;22220;-82
2023/08/11 10:21:19;;;;;;;5.10;2.80;;;;;;;25.36;38.70;99484.78;137524;1273;22812;-83
2023/08/11 10:24:21;;;;;;;6.90;2.40;;;;;;;25.42;38.89;99484.73;137515;1273;22604;-82
2023/08/11 10:27:24;;;;;;;334.20;30.30;;;;;;;25.94;37.57;99477.20;137340;1273;22588;-83
2023/08/11 10:30:27;;;;;;;13.20;2.80;;;;;;;26.03;36.63;99472.55;137332;1273;22517;-83
2023/08/11 10:33:29;;;;;;;3.50;2.30;;;;;;;25.51;36.48;99477.10;137563;1273;22256;-82
2023/08/11 10:36:32;;;;;;;4.30;2.20;;;;;;;24.79;36.11;99476.89;137140;1273;22298;-82
2023/08/11 10:39:51;;;;;;;5.60;2.30;;;;;;;24.29;37.96;99478.98;137589;1273;22247;-83
2023/08/11 10:42:54;;;;;;;4.50;3.30;;;;;;;24.02;38.81;99477.35;137333;1273;22209;-84
2023/08/11 10:57:02;;;;;;;13.20;3.10;;;;;;;25.60;37.03;99466.88;136427;1272;559754;-82
2023/08/11 11:00:03;;;;;;;2.20;2.00;;;;;;;26.03;35.50;99464.88;140704;1246;241456;-81
2023/08/11 11:03:06;;;;;;;4.00;2.60;;;;;;;25.97;33.45;99464.96;140758;1246;22688;-83
2023/08/11 11:06:15;;;;;;;2.80;2.40;;;;;;;25.86;34.57;99461.27;141071;1246;22314;-83
2023/08/11 11:09:22;;;;;;;1.90;1.80;;;;;;;25.76;35.18;99459.20;140446;1246;22419;-83
2023/08/11 11:12:24;;;;;;;3.80;2.00;;;;;;;25.74;34.64;99455.36;141558;1243;22820;-85
2023/08/11 11:15:25;;;;;;;4.20;2.70;;;;;;;25.52;35.26;99459.77;141574;1243;22363;-82
2023/08/11 11:18:26;;;;;;;3.30;2.80;;;;;;;25.34;35.00;99464.38;141662;1243;22293;-84
2023/08/11 11:21:32;;;;;;;3.70;1.80;;;;;;;25.52;34.26;99461.89;141574;1243;22227;-85
2023/08/11 11:24:35;;;;;;;5.00;2.70;;;;;;;25.73;34.31;99458.06;141286;1243;22378;-84
2023/08/11 11:27:39;;;;;;;11.10;2.20;;;;;;;26.34;34.64;99458.98;141441;1243;22303;-83
2023/08/11 11:30:44;;;;;;;2.70;1.90;;;;;;;26.88;33.39;99456.27;141548;1243;22276;-83
2023/08/11 11:33:47;;;;;;;3.70;1.80;;;;;;;26.77;31.30;99456.22;141071;1243;22836;-83
2023/08/11 11:36:49;;;;;;;1.90;1.70;;;;;;;26.23;30.79;99459.41;141049;1243;22374;-83
2023/08/11 11:39:50;;;;;;;7.40;2.40;;;;;;;25.72;32.64;99456.67;141540;1243;22324;-83
2023/08/11 11:42:53;;;;;;;5.70;2.10;;;;;;;25.53;34.38;99453.29;141603;1241;22276;-83
2023/08/11 11:45:54;;;;;;;3.50;1.90;;;;;;;25.87;34.06;99456.25;141599;1243;22375;-82
2023/08/11 11:48:56;;;;;;;2.60;1.90;;;;;;;26.30;32.47;99456.46;141175;1243;22446;-83
2023/08/11 11:51:57;;;;;;;4.90;2.20;;;;;;;26.29;32.64;99457.36;141279;1243;22538;-81
2023/08/11 11:54:58;;;;;;;5.70;3.80;;;;;;;26.63;31.79;99455.92;141421;1243;22404;-81
2023/08/11 11:57:59;;;;;;;14.30;7.60;;;;;;;26.84;31.53;99451.60;141439;1243;22384;-83
2023/08/11 12:01:03;;;;;;;4.20;2.40;;;;;;;27.20;31.66;99455.57;141558;1243;22312;-83
2023/08/11 12:04:04;;;;;;;2.30;2.10;;;;;;;27.55;31.51;99454.61;141512;1243;22276;-82
2023/08/11 12:07:07;;;;;;;5.30;1.90;;;;;;;27.70;31.40;99457.84;141032;1243;22534;-84
2023/08/11 12:10:08;;;;;;;8.10;2.00;;;;;;;27.23;30.52;99456.29;141184;1243;22410;-83
2023/08/11 12:13:10;;;;;;;2.90;2.00;;;;;;;26.89;31.89;99451.05;141501;1241;22253;-82
2023/08/11 12:16:12;;;;;;;28.60;3.90;;;;;;;26.54;31.92;99452.23;141461;1243;22356;-83
2023/08/11 12:19:14;;;;;;;5.40;2.30;;;;;;;26.13;32.08;99452.50;141454;1243;22252;-81
2023/08/11 12:22:15;;;;;;;6.30;2.30;;;;;;;25.78;32.33;99451.98;141032;1243;22556;-82
2023/08/11 12:25:17;;;;;;;4.10;2.10;;;;;;;25.31;33.61;99452.37;141337;1243;22450;-79
2023/08/11 12:28:19;;;;;;;2.60;1.90;;;;;;;25.04;34.63;99448.04;141388;1243;22385;-81
2023/08/11 12:31:20;;;;;;;5.40;2.10;;;;;;;24.76;34.76;99457.44;141398;1243;22517;-80
2023/08/11 12:34:21;;;;;;;4.60;2.10;;;;;;;24.53;35.51;99452.02;141273;1243;22513;-81
2023/08/11 12:37:22;;;;;;;399.70;34.70;;;;;;;24.57;36.28;99454.38;141064;1243;23141;-80
2023/08/11 12:40:24;;;;;;;4.90;1.70;;;;;;;24.72;35.73;99451.70;141422;1243;22434;-81
2023/08/11 12:43:25;;;;;;;3.50;1.90;;;;;;;25.21;34.23;99445.98;141534;1243;22289;-82
2023/08/11 12:46:29;;;;;;;8.40;2.50;;;;;;;25.82;32.81;99436.64;141547;1241;22283;-82
2023/08/11 12:49:30;;;;;;;9.50;2.60;;;;;;;26.15;33.01;99445.85;141335;1243;22504;-81
2023/08/11 12:52:31;;;;;;;8.40;2.30;;;;;;;26.36;32.77;99443.19;141322;1229;22544;-82
2023/08/11 12:55:32;;;;;;;6.30;2.20;;;;;;;26.62;32.26;99444.91;141286;1241;22971;-82
2023/08/11 12:58:34;;;;;;;6.20;2.00;;;;;;;26.63;32.15;99443.09;141149;1243;22447;-80
2023/08/11 13:01:35;;;;;;;7.20;2.50;;;;;;;26.80;32.91;99443.75;141584;1243;22096;-86
2023/08/11 13:04:36;;;;;;;5.00;2.50;;;;;;;27.06;32.23;99445.69;141521;1243;22524;-82
2023/08/11 13:07:37;;;;;;;3.00;2.10;;;;;;;27.21;31.70;99444.44;140745;1243;22556;-81
2023/08/11 13:10:39;;;;;;;3.50;2.00;;;;;;;26.84;31.45;99446.45;141664;1243;22193;-81
2023/08/11 13:13:40;;;;;;;3.10;2.00;;;;;;;26.33;31.71;99448.83;141586;1243;22400;-81
2023/08/11 13:16:41;;;;;;;7.40;2.10;;;;;;;26.01;32.35;99448.02;140912;1243;22385;-81
2023/08/11 13:19:42;;;;;;;2.50;2.20;;;;;;;25.94;32.82;99450.94;141342;1241;22516;-82
2023/08/11 13:22:43;;;;;;;2.10;1.90;;;;;;;25.81;32.91;99450.27;141562;1243;22330;-82
2023/08/11 13:25:46;;;;;;;2.00;1.90;;;;;;;25.72;32.46;99448.86;140930;1243;22997;-81
2023/08/11 13:28:47;;;;;;;4.30;2.10;;;;;;;25.72;32.69;99450.09;141525;1243;22407;-82
2023/08/11 13:31:49;;;;;;;3.20;2.40;;;;;;;25.82;33.46;99448.42;141538;1243;22299;-81
2023/08/11 13:34:50;;;;;;;8.40;2.30;;;;;;;25.80;32.77;99445.32;141318;1243;22405;-82
2023/08/11 13:37:51;;;;;;;3.00;2.20;;;;;;;25.65;32.06;99445.71;141229;1243;23257;-82
2023/08/11 13:40:52;;;;;;;2.60;2.10;;;;;;;25.57;32.16;99450.13;141210;1243;25240;-80
2023/08/11 13:43:54;;;;;;;2.80;2.10;;;;;;;25.59;32.54;99447.56;141428;1243;22391;-80
2023/08/11 13:46:55;;;;;;;2.80;2.10;;;;;;;25.69;32.51;99449.66;141636;1243;22312;-82
2023/08/11 13:49:56;;;;;;;2.20;1.90;;;;;;;25.96;32.94;99447.88;141069;1243;22547;-81
2023/08/11 13:52:57;;;;;;;2.50;2.10;;;;;;;26.25;32.49;99444.54;141281;1243;22540;-81
2023/08/11 13:55:58;;;;;;;5.60;2.20;;;;;;;26.37;32.77;99441.70;141216;1243;22381;-81
2023/08/11 13:59:00;;;;;;;5.10;2.10;;;;;;;26.41;32.50;99440.67;141103;1243;22896;-81
2023/08/11 14:02:01;;;;;;;4.60;2.40;;;;;;;26.18;31.87;99445.38;141636;1243;22288;-85
2023/08/11 14:05:03;;;;;;;3.50;2.40;;;;;;;25.85;33.29;99439.91;140987;1243;22412;-79
2023/08/11 14:08:04;;;;;;;3.30;2.20;;;;;;;26.09;33.62;99441.83;141233;1243;22371;-80
2023/08/11 14:11:05;;;;;;;3.60;2.10;;;;;;;26.02;32.21;99439.43;141533;1243;22237;-79
2023/08/11 14:14:06;;;;;;;4.30;2.40;;;;;;;25.86;32.40;99432.77;141588;1243;22303;-78
2023/08/11 14:17:07;;;;;;;2.40;2.20;;;;;;;25.71;32.76;99436.59;141217;1243;22399;-84
2023/08/11 14:20:08;;;;;;;25.80;2.90;;;;;;;25.84;32.70;99434.79;140784;1243;23044;-84
2023/08/11 14:23:13;;;;;;;5.60;2.40;;;;;;;25.90;33.13;99438.11;141162;1243;22404;-84
2023/08/11 14:26:14;;;;;;;8.30;2.60;;;;;;;25.82;32.47;99440.97;141206;1243;22384;-81
2023/08/11 14:29:16;;;;;;;2.30;2.10;;;;;;;25.75;32.46;99443.02;140759;1243;22509;-84
2023/08/11 14:32:17;;;;;;;4.10;2.30;;;;;;;25.80;32.40;99438.52;141175;1243;22362;-85
2023/08/11 14:35:18;;;;;;;2.60;2.40;;;;;;;25.88;31.87;99434.99;141149;1243;22525;-86
2023/08/11 14:38:19;;;;;;;2.40;2.20;;;;;;;25.89;32.06;99429.08;140940;1243;22527;-85
2023/08/11 14:41:20;;;;;;;4.40;2.20;;;;;;;25.89;33.18;99434.59;141103;1243;22429;-85
2023/08/11 14:44:22;;;;;;;2.40;2.10;;;;;;;25.88;33.48;99439.99;141014;1243;22380;-85
2023/08/11 14:47:23;;;;;;;3.20;2.10;;;;;;;25.84;33.44;99434.46;141172;1243;22531;-84